sensor_id;sensor_type;location;lat;lon;timestamp;temperature;humidity
19164;DHT22;9714;51.208;4.242;2023-10-13T00:02:16;19.10;99.90
19164;DHT22;9714;51.208;4.242;2023-10-13T00:04:51;19.10;99.90
19164;DHT22;9714;51.208;4.242;2023-10-13T00:07:19;19.00;99.90
19164;DHT22;9714;51.208;4.242;2023-10-13T00:09:50;19.00;99.90
19164;DHT22;9714;51.208;4.242;2023-10-13T00:12:21;19.00;99.90
19164;DHT22;9714;51.208;4.242;2023-10-13T00:14:50;18.90;99.90
19164;DHT22;9714;51.208;4.242;2023-10-13T00:17:19;19.10;99.90
19164;DHT22;9714;51.208;4.242;2023-10-13T00:19:50;19.00;99.90
19164;DHT22;9714;51.208;4.242;2023-10-13T00:22:21;19.00;99.90
19164;DHT22;9714;51.208;4.242;2023-10-13T00:24:49;19.00;99.90
19164;DHT22;9714;51.208;4.242;2023-10-13T00:27:25;18.90;99.90
19164;DHT22;9714;51.208;4.242;2023-10-13T00:29:57;19.00;99.90
19164;DHT22;9714;51.208;4.242;2023-10-13T00:32:50;18.80;99.90
19164;DHT22;9714;51.208;4.242;2023-10-13T00:35:22;19.00;99.90
19164;DHT22;9714;51.208;4.242;2023-10-13T00:37:54;19.00;99.90
19164;DHT22;9714;51.208;4.242;2023-10-13T00:40:23;18.90;99.90
19164;DHT22;9714;51.208;4.242;2023-10-13T00:43:13;19.00;99.90
19164;DHT22;9714;51.208;4.242;2023-10-13T00:46:02;18.90;99.90
19164;DHT22;9714;51.208;4.242;2023-10-13T00:48:41;19.10;99.90
19164;DHT22;9714;51.208;4.242;2023-10-13T00:51:19;18.90;99.90
19164;DHT22;9714;51.208;4.242;2023-10-13T00:54:03;18.90;99.90
19164;DHT22;9714;51.208;4.242;2023-10-13T00:56:33;18.80;99.90
19164;DHT22;9714;51.208;4.242;2023-10-13T00:59:15;18.90;99.90
19164;DHT22;9714;51.208;4.242;2023-10-13T01:01:43;18.90;99.90
19164;DHT22;9714;51.208;4.242;2023-10-13T01:04:10;18.90;99.90
19164;DHT22;9714;51.208;4.242;2023-10-13T01:06:40;18.80;99.90
19164;DHT22;9714;51.208;4.242;2023-10-13T01:09:09;18.80;99.90
19164;DHT22;9714;51.208;4.242;2023-10-13T01:11:43;19.00;99.90
19164;DHT22;9714;51.208;4.242;2023-10-13T01:14:10;18.90;99.90
19164;DHT22;9714;51.208;4.242;2023-10-13T01:16:42;19.00;99.90
19164;DHT22;9714;51.208;4.242;2023-10-13T01:19:11;19.10;99.90
19164;DHT22;9714;51.208;4.242;2023-10-13T01:21:39;19.00;99.90
19164;DHT22;9714;51.208;4.242;2023-10-13T01:24:08;19.00;99.90
19164;DHT22;9714;51.208;4.242;2023-10-13T01:26:39;19.00;99.90
19164;DHT22;9714;51.208;4.242;2023-10-13T01:29:07;18.80;99.90
19164;DHT22;9714;51.208;4.242;2023-10-13T01:31:41;18.80;99.90
19164;DHT22;9714;51.208;4.242;2023-10-13T01:34:12;18.90;99.90
19164;DHT22;9714;51.208;4.242;2023-10-13T01:36:45;19.00;99.90
19164;DHT22;9714;51.208;4.242;2023-10-13T01:39:13;18.80;99.90
19164;DHT22;9714;51.208;4.242;2023-10-13T01:41:42;19.10;99.90
19164;DHT22;9714;51.208;4.242;2023-10-13T01:44:09;19.10;99.90
19164;DHT22;9714;51.208;4.242;2023-10-13T01:46:38;19.10;99.90
19164;DHT22;9714;51.208;4.242;2023-10-13T01:49:05;19.20;99.90
19164;DHT22;9714;51.208;4.242;2023-10-13T01:51:33;19.20;99.90
19164;DHT22;9714;51.208;4.242;2023-10-13T01:53:59;19.10;99.90
19164;DHT22;9714;51.208;4.242;2023-10-13T01:56:30;18.90;99.90
19164;DHT22;9714;51.208;4.242;2023-10-13T01:58:57;18.80;99.90
19164;DHT22;9714;51.208;4.242;2023-10-13T02:01:24;18.80;99.90
19164;DHT22;9714;51.208;4.242;2023-10-13T02:04:00;18.80;99.90
19164;DHT22;9714;51.208;4.242;2023-10-13T02:06:28;18.70;99.90
19164;DHT22;9714;51.208;4.242;2023-10-13T02:08:59;18.80;99.90
19164;DHT22;9714;51.208;4.242;2023-10-13T02:11:37;18.80;99.90
19164;DHT22;9714;51.208;4.242;2023-10-13T02:14:05;18.80;99.90
19164;DHT22;9714;51.208;4.242;2023-10-13T02:16:31;18.90;99.90
19164;DHT22;9714;51.208;4.242;2023-10-13T02:18:58;18.80;99.90
19164;DHT22;9714;51.208;4.242;2023-10-13T02:21:30;18.90;99.90
19164;DHT22;9714;51.208;4.242;2023-10-13T02:23:58;18.80;99.90
19164;DHT22;9714;51.208;4.242;2023-10-13T02:26:30;19.00;99.90
19164;DHT22;9714;51.208;4.242;2023-10-13T02:29:00;18.90;99.90
19164;DHT22;9714;51.208;4.242;2023-10-13T02:31:28;19.00;99.90
19164;DHT22;9714;51.208;4.242;2023-10-13T02:33:55;19.00;99.90
19164;DHT22;9714;51.208;4.242;2023-10-13T02:36:22;18.90;99.90
19164;DHT22;9714;51.208;4.242;2023-10-13T02:39:02;18.80;99.90
19164;DHT22;9714;51.208;4.242;2023-10-13T02:41:33;18.90;99.90
19164;DHT22;9714;51.208;4.242;2023-10-13T02:44:05;19.00;99.90
19164;DHT22;9714;51.208;4.242;2023-10-13T02:46:32;18.90;99.90
19164;DHT22;9714;51.208;4.242;2023-10-13T02:49:01;18.90;99.90
19164;DHT22;9714;51.208;4.242;2023-10-13T02:51:35;19.00;99.90
19164;DHT22;9714;51.208;4.242;2023-10-13T02:54:04;19.00;99.90
19164;DHT22;9714;51.208;4.242;2023-10-13T02:56:36;18.90;99.90
19164;DHT22;9714;51.208;4.242;2023-10-13T02:59:03;19.10;99.90
19164;DHT22;9714;51.208;4.242;2023-10-13T03:01:32;19.10;99.90
19164;DHT22;9714;51.208;4.242;2023-10-13T03:04:00;19.20;99.90
19164;DHT22;9714;51.208;4.242;2023-10-13T03:06:29;19.00;99.90
19164;DHT22;9714;51.208;4.242;2023-10-13T03:08:59;19.00;99.90
19164;DHT22;9714;51.208;4.242;2023-10-13T03:11:39;19.30;99.90
19164;DHT22;9714;51.208;4.242;2023-10-13T03:14:09;19.30;99.90
19164;DHT22;9714;51.208;4.242;2023-10-13T03:16:50;19.30;99.90
19164;DHT22;9714;51.208;4.242;2023-10-13T03:19:18;19.40;99.90
19164;DHT22;9714;51.208;4.242;2023-10-13T03:21:45;19.20;99.90
19164;DHT22;9714;51.208;4.242;2023-10-13T03:24:21;19.30;99.90
19164;DHT22;9714;51.208;4.242;2023-10-13T03:26:59;19.30;99.90
19164;DHT22;9714;51.208;4.242;2023-10-13T03:29:26;19.40;99.90
19164;DHT22;9714;51.208;4.242;2023-10-13T03:31:56;19.40;99.90
19164;DHT22;9714;51.208;4.242;2023-10-13T03:34:33;19.50;99.90
19164;DHT22;9714;51.208;4.242;2023-10-13T03:37:00;19.50;99.90
19164;DHT22;9714;51.208;4.242;2023-10-13T03:39:36;19.40;99.90
19164;DHT22;9714;51.208;4.242;2023-10-13T03:42:03;19.20;99.90
19164;DHT22;9714;51.208;4.242;2023-10-13T03:44:38;19.30;99.90
19164;DHT22;9714;51.208;4.242;2023-10-13T03:47:05;19.30;99.90
19164;DHT22;9714;51.208;4.242;2023-10-13T03:49:44;19.20;99.90
19164;DHT22;9714;51.208;4.242;2023-10-13T03:52:11;19.20;99.90
19164;DHT22;9714;51.208;4.242;2023-10-13T03:54:39;19.20;99.90
19164;DHT22;9714;51.208;4.242;2023-10-13T03:57:06;19.30;99.90
19164;DHT22;9714;51.208;4.242;2023-10-13T03:59:38;19.20;99.90
19164;DHT22;9714;51.208;4.242;2023-10-13T04:02:05;19.20;99.90
19164;DHT22;9714;51.208;4.242;2023-10-13T04:04:38;19.20;99.90
19164;DHT22;9714;51.208;4.242;2023-10-13T04:07:15;19.30;99.90
19164;DHT22;9714;51.208;4.242;2023-10-13T04:09:59;19.30;99.90
19164;DHT22;9714;51.208;4.242;2023-10-13T04:12:43;19.20;99.90
19164;DHT22;9714;51.208;4.242;2023-10-13T04:15:29;19.10;99.90
19164;DHT22;9714;51.208;4.242;2023-10-13T04:18:06;19.10;99.90
19164;DHT22;9714;51.208;4.242;2023-10-13T04:20:59;19.10;99.90
19164;DHT22;9714;51.208;4.242;2023-10-13T04:23:44;19.10;99.90
19164;DHT22;9714;51.208;4.242;2023-10-13T04:26:25;19.20;99.90
19164;DHT22;9714;51.208;4.242;2023-10-13T04:29:03;19.10;99.90
19164;DHT22;9714;51.208;4.242;2023-10-13T04:31:38;19.10;99.90
19164;DHT22;9714;51.208;4.242;2023-10-13T04:34:26;18.90;99.90
19164;DHT22;9714;51.208;4.242;2023-10-13T04:37:00;19.10;99.90
19164;DHT22;9714;51.208;4.242;2023-10-13T04:39:48;19.20;99.90
19164;DHT22;9714;51.208;4.242;2023-10-13T04:42:22;19.10;99.90
19164;DHT22;9714;51.208;4.242;2023-10-13T04:45:06;19.10;99.90
19164;DHT22;9714;51.208;4.242;2023-10-13T04:47:54;19.40;99.90
19164;DHT22;9714;51.208;4.242;2023-10-13T04:50:39;19.30;99.90
19164;DHT22;9714;51.208;4.242;2023-10-13T04:53:11;19.30;99.90
19164;DHT22;9714;51.208;4.242;2023-10-13T04:55:54;19.30;99.90
19164;DHT22;9714;51.208;4.242;2023-10-13T04:58:33;19.20;99.90
19164;DHT22;9714;51.208;4.242;2023-10-13T05:01:17;19.30;99.90
19164;DHT22;9714;51.208;4.242;2023-10-13T05:04:11;19.30;99.90
19164;DHT22;9714;51.208;4.242;2023-10-13T05:06:52;19.30;99.90
19164;DHT22;9714;51.208;4.242;2023-10-13T05:09:36;19.30;99.90
19164;DHT22;9714;51.208;4.242;2023-10-13T05:12:20;19.30;99.90
19164;DHT22;9714;51.208;4.242;2023-10-13T05:15:05;19.30;99.90
19164;DHT22;9714;51.208;4.242;2023-10-13T05:17:50;19.20;99.90
19164;DHT22;9714;51.208;4.242;2023-10-13T05:20:36;19.30;99.90
19164;DHT22;9714;51.208;4.242;2023-10-13T05:23:21;19.20;99.90
19164;DHT22;9714;51.208;4.242;2023-10-13T05:26:05;19.20;99.90
19164;DHT22;9714;51.208;4.242;2023-10-13T05:28:50;19.20;99.90
19164;DHT22;9714;51.208;4.242;2023-10-13T05:31:35;19.30;99.90
19164;DHT22;9714;51.208;4.242;2023-10-13T05:34:19;19.30;99.90
19164;DHT22;9714;51.208;4.242;2023-10-13T05:37:05;19.40;99.90
19164;DHT22;9714;51.208;4.242;2023-10-13T05:39:49;19.40;99.90
19164;DHT22;9714;51.208;4.242;2023-10-13T05:42:34;19.20;99.90
19164;DHT22;9714;51.208;4.242;2023-10-13T05:45:18;19.10;99.90
19164;DHT22;9714;51.208;4.242;2023-10-13T05:48:06;19.10;99.90
19164;DHT22;9714;51.208;4.242;2023-10-13T05:50:39;19.10;99.90
19164;DHT22;9714;51.208;4.242;2023-10-13T05:53:46;19.10;99.90
19164;DHT22;9714;51.208;4.242;2023-10-13T05:56:30;19.00;99.90
19164;DHT22;9714;51.208;4.242;2023-10-13T05:59:14;19.10;99.90
19164;DHT22;9714;51.208;4.242;2023-10-13T06:01:59;19.20;99.90
19164;DHT22;9714;51.208;4.242;2023-10-13T06:04:43;19.10;99.90
19164;DHT22;9714;51.208;4.242;2023-10-13T06:07:36;19.00;99.90
19164;DHT22;9714;51.208;4.242;2023-10-13T06:10:22;19.00;99.90
19164;DHT22;9714;51.208;4.242;2023-10-13T06:13:07;19.00;99.90
19164;DHT22;9714;51.208;4.242;2023-10-13T06:15:50;18.90;99.90
19164;DHT22;9714;51.208;4.242;2023-10-13T06:18:35;19.00;99.90
19164;DHT22;9714;51.208;4.242;2023-10-13T06:21:20;19.00;99.90
19164;DHT22;9714;51.208;4.242;2023-10-13T06:24:05;19.00;99.90
19164;DHT22;9714;51.208;4.242;2023-10-13T06:26:51;19.20;99.90
19164;DHT22;9714;51.208;4.242;2023-10-13T06:29:35;19.20;99.90
19164;DHT22;9714;51.208;4.242;2023-10-13T06:32:03;19.20;99.90
19164;DHT22;9714;51.208;4.242;2023-10-13T06:34:36;19.20;99.90
19164;DHT22;9714;51.208;4.242;2023-10-13T06:37:11;19.20;99.90
19164;DHT22;9714;51.208;4.242;2023-10-13T06:39:49;19.50;99.90
19164;DHT22;9714;51.208;4.242;2023-10-13T06:42:18;19.40;99.90
19164;DHT22;9714;51.208;4.242;2023-10-13T06:44:46;19.40;99.90
19164;DHT22;9714;51.208;4.242;2023-10-13T06:47:14;19.50;99.90
19164;DHT22;9714;51.208;4.242;2023-10-13T06:49:41;19.50;99.90
19164;DHT22;9714;51.208;4.242;2023-10-13T06:52:09;19.50;99.90
19164;DHT22;9714;51.208;4.242;2023-10-13T06:54:37;19.60;99.90
19164;DHT22;9714;51.208;4.242;2023-10-13T06:57:07;19.70;99.90
19164;DHT22;9714;51.208;4.242;2023-10-13T06:59:41;19.70;99.90
19164;DHT22;9714;51.208;4.242;2023-10-13T07:02:08;19.70;99.90
19164;DHT22;9714;51.208;4.242;2023-10-13T07:04:46;19.90;99.90
19164;DHT22;9714;51.208;4.242;2023-10-13T07:07:13;20.00;99.90
19164;DHT22;9714;51.208;4.242;2023-10-13T07:09:41;19.90;99.90
19164;DHT22;9714;51.208;4.242;2023-10-13T07:12:15;20.00;99.90
19164;DHT22;9714;51.208;4.242;2023-10-13T07:14:49;20.00;99.90
19164;DHT22;9714;51.208;4.242;2023-10-13T07:17:19;20.10;99.90
19164;DHT22;9714;51.208;4.242;2023-10-13T07:19:51;20.10;99.90
19164;DHT22;9714;51.208;4.242;2023-10-13T07:22:31;20.00;99.90
19164;DHT22;9714;51.208;4.242;2023-10-13T07:25:05;20.00;99.90
19164;DHT22;9714;51.208;4.242;2023-10-13T07:27:33;20.00;99.90
19164;DHT22;9714;51.208;4.242;2023-10-13T07:30:02;20.00;99.90
19164;DHT22;9714;51.208;4.242;2023-10-13T07:32:43;20.10;99.90
19164;DHT22;9714;51.208;4.242;2023-10-13T07:35:18;20.20;99.90
19164;DHT22;9714;51.208;4.242;2023-10-13T07:37:50;20.20;99.90
19164;DHT22;9714;51.208;4.242;2023-10-13T07:40:21;20.30;99.90
19164;DHT22;9714;51.208;4.242;2023-10-13T07:43:05;20.40;99.90
19164;DHT22;9714;51.208;4.242;2023-10-13T07:45:38;20.40;99.90
19164;DHT22;9714;51.208;4.242;2023-10-13T07:48:08;20.50;99.90
19164;DHT22;9714;51.208;4.242;2023-10-13T07:50:42;20.70;99.90
19164;DHT22;9714;51.208;4.242;2023-10-13T07:53:11;20.90;99.90
19164;DHT22;9714;51.208;4.242;2023-10-13T07:55:48;21.00;99.90
19164;DHT22;9714;51.208;4.242;2023-10-13T07:58:19;20.90;99.90
19164;DHT22;9714;51.208;4.242;2023-10-13T08:00:52;21.10;99.90
19164;DHT22;9714;51.208;4.242;2023-10-13T08:03:32;21.20;99.90
19164;DHT22;9714;51.208;4.242;2023-10-13T08:11:26;21.10;99.90
19164;DHT22;9714;51.208;4.242;2023-10-13T08:14:01;21.00;99.90
19164;DHT22;9714;51.208;4.242;2023-10-13T08:16:38;21.10;99.90
19164;DHT22;9714;51.208;4.242;2023-10-13T08:19:21;21.10;99.90
19164;DHT22;9714;51.208;4.242;2023-10-13T08:21:53;21.10;99.90
19164;DHT22;9714;51.208;4.242;2023-10-13T08:24:23;21.30;99.90
19164;DHT22;9714;51.208;4.242;2023-10-13T08:26:55;21.40;99.90
19164;DHT22;9714;51.208;4.242;2023-10-13T08:29:44;21.40;99.90
19164;DHT22;9714;51.208;4.242;2023-10-13T08:32:35;21.70;99.90
19164;DHT22;9714;51.208;4.242;2023-10-13T08:35:12;21.70;99.90
19164;DHT22;9714;51.208;4.242;2023-10-13T08:37:53;21.50;99.90
19164;DHT22;9714;51.208;4.242;2023-10-13T08:40:30;21.50;99.90
19164;DHT22;9714;51.208;4.242;2023-10-13T08:43:32;21.60;99.90
19164;DHT22;9714;51.208;4.242;2023-10-13T08:46:09;21.70;99.90
19164;DHT22;9714;51.208;4.242;2023-10-13T08:48:53;21.60;99.90
19164;DHT22;9714;51.208;4.242;2023-10-13T08:51:34;21.60;99.90
19164;DHT22;9714;51.208;4.242;2023-10-13T08:54:16;21.70;99.90
19164;DHT22;9714;51.208;4.242;2023-10-13T08:57:00;21.80;99.90
19164;DHT22;9714;51.208;4.242;2023-10-13T08:59:45;21.80;99.90
19164;DHT22;9714;51.208;4.242;2023-10-13T09:02:21;21.80;99.90
19164;DHT22;9714;51.208;4.242;2023-10-13T09:05:11;21.90;99.90
19164;DHT22;9714;51.208;4.242;2023-10-13T09:07:52;22.00;99.90
19164;DHT22;9714;51.208;4.242;2023-10-13T09:10:22;22.00;99.90
19164;DHT22;9714;51.208;4.242;2023-10-13T09:12:58;22.00;99.90
19164;DHT22;9714;51.208;4.242;2023-10-13T09:15:29;21.90;99.90
19164;DHT22;9714;51.208;4.242;2023-10-13T09:18:10;21.90;99.90
19164;DHT22;9714;51.208;4.242;2023-10-13T09:20:41;22.10;99.90
19164;DHT22;9714;51.208;4.242;2023-10-13T09:23:13;22.70;99.90
19164;DHT22;9714;51.208;4.242;2023-10-13T09:25:51;23.10;99.90
19164;DHT22;9714;51.208;4.242;2023-10-13T09:28:24;23.30;99.90
19164;DHT22;9714;51.208;4.242;2023-10-13T09:30:54;22.90;99.90
19164;DHT22;9714;51.208;4.242;2023-10-13T09:33:24;22.90;99.90
19164;DHT22;9714;51.208;4.242;2023-10-13T09:36:00;22.80;99.90
19164;DHT22;9714;51.208;4.242;2023-10-13T09:38:27;22.60;99.90
19164;DHT22;9714;51.208;4.242;2023-10-13T09:40:55;22.40;99.90
19164;DHT22;9714;51.208;4.242;2023-10-13T09:43:27;22.10;99.90
19164;DHT22;9714;51.208;4.242;2023-10-13T09:45:58;21.90;99.90
19164;DHT22;9714;51.208;4.242;2023-10-13T09:48:32;22.00;99.90
19164;DHT22;9714;51.208;4.242;2023-10-13T09:51:03;22.00;99.90
19164;DHT22;9714;51.208;4.242;2023-10-13T09:53:35;22.20;99.90
19164;DHT22;9714;51.208;4.242;2023-10-13T09:56:10;22.20;99.90
19164;DHT22;9714;51.208;4.242;2023-10-13T09:58:48;22.20;99.90
19164;DHT22;9714;51.208;4.242;2023-10-13T10:01:22;22.40;99.90
19164;DHT22;9714;51.208;4.242;2023-10-13T10:04:07;22.20;99.90
19164;DHT22;9714;51.208;4.242;2023-10-13T10:06:36;22.20;99.90
19164;DHT22;9714;51.208;4.242;2023-10-13T10:09:11;22.10;99.90
19164;DHT22;9714;51.208;4.242;2023-10-13T10:11:54;21.90;99.90
19164;DHT22;9714;51.208;4.242;2023-10-13T10:14:35;22.00;99.90
19164;DHT22;9714;51.208;4.242;2023-10-13T10:17:08;21.90;99.90
19164;DHT22;9714;51.208;4.242;2023-10-13T10:19:48;21.90;99.90
19164;DHT22;9714;51.208;4.242;2023-10-13T10:22:27;21.90;99.90
19164;DHT22;9714;51.208;4.242;2023-10-13T10:24:59;21.70;99.90
19164;DHT22;9714;51.208;4.242;2023-10-13T10:27:29;21.80;99.90
19164;DHT22;9714;51.208;4.242;2023-10-13T10:29:56;21.80;99.90
19164;DHT22;9714;51.208;4.242;2023-10-13T10:32:32;21.70;99.90
19164;DHT22;9714;51.208;4.242;2023-10-13T10:35:08;21.50;99.90
19164;DHT22;9714;51.208;4.242;2023-10-13T10:37:41;21.50;99.90
19164;DHT22;9714;51.208;4.242;2023-10-13T10:40:22;21.40;99.90
19164;DHT22;9714;51.208;4.242;2023-10-13T10:43:12;21.40;99.90
19164;DHT22;9714;51.208;4.242;2023-10-13T10:45:46;21.60;99.90
19164;DHT22;9714;51.208;4.242;2023-10-13T10:48:14;21.60;99.90
19164;DHT22;9714;51.208;4.242;2023-10-13T10:50:45;21.60;99.90
19164;DHT22;9714;51.208;4.242;2023-10-13T10:53:20;21.80;99.90
19164;DHT22;9714;51.208;4.242;2023-10-13T10:56:04;21.90;99.90
19164;DHT22;9714;51.208;4.242;2023-10-13T10:58:34;22.10;99.90
19164;DHT22;9714;51.208;4.242;2023-10-13T11:01:09;22.10;99.90
19164;DHT22;9714;51.208;4.242;2023-10-13T11:03:38;22.10;99.90
19164;DHT22;9714;51.208;4.242;2023-10-13T11:06:11;22.30;99.90
19164;DHT22;9714;51.208;4.242;2023-10-13T11:08:44;22.20;99.90
19164;DHT22;9714;51.208;4.242;2023-10-13T11:11:27;22.20;99.90
19164;DHT22;9714;51.208;4.242;2023-10-13T11:13:56;22.40;99.90
19164;DHT22;9714;51.208;4.242;2023-10-13T11:16:45;22.50;99.90
19164;DHT22;9714;51.208;4.242;2023-10-13T11:19:17;22.60;99.90
19164;DHT22;9714;51.208;4.242;2023-10-13T11:21:46;22.60;99.90
19164;DHT22;9714;51.208;4.242;2023-10-13T11:24:15;22.60;99.90
19164;DHT22;9714;51.208;4.242;2023-10-13T11:26:43;22.60;99.90
19164;DHT22;9714;51.208;4.242;2023-10-13T11:29:16;22.70;99.90
19164;DHT22;9714;51.208;4.242;2023-10-13T11:31:46;22.60;99.90
19164;DHT22;9714;51.208;4.242;2023-10-13T11:34:13;22.70;99.90
19164;DHT22;9714;51.208;4.242;2023-10-13T11:36:43;22.70;99.90
19164;DHT22;9714;51.208;4.242;2023-10-13T11:39:10;22.60;99.90
19164;DHT22;9714;51.208;4.242;2023-10-13T11:41:44;22.70;99.90
19164;DHT22;9714;51.208;4.242;2023-10-13T11:44:20;22.90;99.90
19164;DHT22;9714;51.208;4.242;2023-10-13T11:47:09;22.90;99.90
19164;DHT22;9714;51.208;4.242;2023-10-13T11:49:50;22.90;99.90
19164;DHT22;9714;51.208;4.242;2023-10-13T11:52:22;22.90;99.90
19164;DHT22;9714;51.208;4.242;2023-10-13T11:54:52;23.10;99.90
19164;DHT22;9714;51.208;4.242;2023-10-13T11:57:21;23.20;99.90
19164;DHT22;9714;51.208;4.242;2023-10-13T11:59:48;23.30;99.90
19164;DHT22;9714;51.208;4.242;2023-10-13T12:02:44;23.20;99.90
19164;DHT22;9714;51.208;4.242;2023-10-13T12:05:29;23.20;99.90
19164;DHT22;9714;51.208;4.242;2023-10-13T12:08:14;23.30;99.90
19164;DHT22;9714;51.208;4.242;2023-10-13T12:10:47;23.20;99.90
19164;DHT22;9714;51.208;4.242;2023-10-13T12:13:26;23.30;99.90
19164;DHT22;9714;51.208;4.242;2023-10-13T12:15:54;23.30;99.90
19164;DHT22;9714;51.208;4.242;2023-10-13T12:18:22;23.30;99.90
19164;DHT22;9714;51.208;4.242;2023-10-13T12:20:52;23.30;99.90
19164;DHT22;9714;51.208;4.242;2023-10-13T12:23:19;23.30;99.90
19164;DHT22;9714;51.208;4.242;2023-10-13T12:25:56;23.20;99.90
19164;DHT22;9714;51.208;4.242;2023-10-13T12:28:33;23.40;99.90
19164;DHT22;9714;51.208;4.242;2023-10-13T12:31:06;23.40;99.90
19164;DHT22;9714;51.208;4.242;2023-10-13T12:33:37;23.60;99.90
19164;DHT22;9714;51.208;4.242;2023-10-13T12:36:06;23.70;99.90
19164;DHT22;9714;51.208;4.242;2023-10-13T12:38:35;23.90;99.90
19164;DHT22;9714;51.208;4.242;2023-10-13T12:41:37;24.10;99.90
19164;DHT22;9714;51.208;4.242;2023-10-13T12:44:24;24.00;99.90
19164;DHT22;9714;51.208;4.242;2023-10-13T12:47:08;24.10;99.90
19164;DHT22;9714;51.208;4.242;2023-10-13T12:49:53;24.10;99.90
19164;DHT22;9714;51.208;4.242;2023-10-13T12:52:25;24.20;99.90
19164;DHT22;9714;51.208;4.242;2023-10-13T12:54:53;24.00;99.90
19164;DHT22;9714;51.208;4.242;2023-10-13T12:57:33;24.00;99.90
19164;DHT22;9714;51.208;4.242;2023-10-13T13:00:01;23.80;99.90
19164;DHT22;9714;51.208;4.242;2023-10-13T13:02:42;23.80;99.90
19164;DHT22;9714;51.208;4.242;2023-10-13T13:05:09;23.80;99.90
19164;DHT22;9714;51.208;4.242;2023-10-13T13:10:12;23.90;99.90
19164;DHT22;9714;51.208;4.242;2023-10-13T13:12:40;23.90;99.90
19164;DHT22;9714;51.208;4.242;2023-10-13T13:15:09;23.80;99.90
19164;DHT22;9714;51.208;4.242;2023-10-13T13:17:37;23.90;99.90
19164;DHT22;9714;51.208;4.242;2023-10-13T13:20:06;24.00;99.90
19164;DHT22;9714;51.208;4.242;2023-10-13T13:22:52;24.10;99.90
19164;DHT22;9714;51.208;4.242;2023-10-13T13:25:20;24.10;99.90
19164;DHT22;9714;51.208;4.242;2023-10-13T13:27:52;24.10;99.90
19164;DHT22;9714;51.208;4.242;2023-10-13T13:30:20;24.10;99.90
19164;DHT22;9714;51.208;4.242;2023-10-13T13:32:48;24.00;99.90
19164;DHT22;9714;51.208;4.242;2023-10-13T13:35:16;24.00;99.90
19164;DHT22;9714;51.208;4.242;2023-10-13T13:37:44;24.30;99.90
19164;DHT22;9714;51.208;4.242;2023-10-13T13:40:13;24.20;99.90
19164;DHT22;9714;51.208;4.242;2023-10-13T13:42:42;24.40;99.90
19164;DHT22;9714;51.208;4.242;2023-10-13T13:45:12;24.40;99.90
19164;DHT22;9714;51.208;4.242;2023-10-13T13:47:48;24.50;99.90
19164;DHT22;9714;51.208;4.242;2023-10-13T13:50:20;24.50;99.90
19164;DHT22;9714;51.208;4.242;2023-10-13T13:52:51;24.50;99.90
19164;DHT22;9714;51.208;4.242;2023-10-13T13:55:19;24.40;99.90
19164;DHT22;9714;51.208;4.242;2023-10-13T13:57:46;24.20;99.90
19164;DHT22;9714;51.208;4.242;2023-10-13T14:00:16;24.20;99.90
19164;DHT22;9714;51.208;4.242;2023-10-13T14:02:49;24.20;99.90
19164;DHT22;9714;51.208;4.242;2023-10-13T14:05:16;24.10;99.90
19164;DHT22;9714;51.208;4.242;2023-10-13T14:07:43;24.30;99.90
19164;DHT22;9714;51.208;4.242;2023-10-13T14:10:16;24.40;99.90
19164;DHT22;9714;51.208;4.242;2023-10-13T14:12:59;24.20;99.90
19164;DHT22;9714;51.208;4.242;2023-10-13T14:15:33;23.90;99.90
19164;DHT22;9714;51.208;4.242;2023-10-13T14:18:07;23.80;99.90
19164;DHT22;9714;51.208;4.242;2023-10-13T14:20:40;23.60;99.90
19164;DHT22;9714;51.208;4.242;2023-10-13T14:23:08;23.70;99.90
19164;DHT22;9714;51.208;4.242;2023-10-13T14:25:38;23.70;99.90
19164;DHT22;9714;51.208;4.242;2023-10-13T14:28:10;23.60;99.90
19164;DHT22;9714;51.208;4.242;2023-10-13T14:30:43;23.60;99.90
19164;DHT22;9714;51.208;4.242;2023-10-13T14:33:12;23.30;99.90
19164;DHT22;9714;51.208;4.242;2023-10-13T14:35:39;23.30;99.90
19164;DHT22;9714;51.208;4.242;2023-10-13T14:38:07;23.40;99.90
19164;DHT22;9714;51.208;4.242;2023-10-13T14:40:34;23.40;99.90
19164;DHT22;9714;51.208;4.242;2023-10-13T14:43:02;23.20;99.90
19164;DHT22;9714;51.208;4.242;2023-10-13T14:45:29;23.20;99.90
19164;DHT22;9714;51.208;4.242;2023-10-13T14:47:59;23.10;99.90
19164;DHT22;9714;51.208;4.242;2023-10-13T14:50:28;23.00;99.90
19164;DHT22;9714;51.208;4.242;2023-10-13T14:52:56;23.10;99.90
19164;DHT22;9714;51.208;4.242;2023-10-13T14:55:24;23.10;99.90
19164;DHT22;9714;51.208;4.242;2023-10-13T14:58:03;23.10;99.90
19164;DHT22;9714;51.208;4.242;2023-10-13T15:00:34;23.00;99.90
19164;DHT22;9714;51.208;4.242;2023-10-13T15:03:02;23.00;99.90
19164;DHT22;9714;51.208;4.242;2023-10-13T15:05:38;22.90;99.90
19164;DHT22;9714;51.208;4.242;2023-10-13T15:08:08;23.00;99.90
19164;DHT22;9714;51.208;4.242;2023-10-13T15:10:35;23.10;99.90
19164;DHT22;9714;51.208;4.242;2023-10-13T15:13:03;23.00;99.90
19164;DHT22;9714;51.208;4.242;2023-10-13T15:15:31;23.00;99.90
19164;DHT22;9714;51.208;4.242;2023-10-13T15:18:04;23.10;99.90
19164;DHT22;9714;51.208;4.242;2023-10-13T15:20:38;23.10;99.90
19164;DHT22;9714;51.208;4.242;2023-10-13T15:23:05;23.00;99.90
19164;DHT22;9714;51.208;4.242;2023-10-13T15:25:33;23.00;99.90
19164;DHT22;9714;51.208;4.242;2023-10-13T15:28:15;23.10;99.90
19164;DHT22;9714;51.208;4.242;2023-10-13T15:30:47;23.20;99.90
19164;DHT22;9714;51.208;4.242;2023-10-13T15:33:23;23.30;99.90
19164;DHT22;9714;51.208;4.242;2023-10-13T15:35:52;23.20;99.90
19164;DHT22;9714;51.208;4.242;2023-10-13T15:38:19;23.20;99.90
19164;DHT22;9714;51.208;4.242;2023-10-13T15:40:48;23.30;99.90
19164;DHT22;9714;51.208;4.242;2023-10-13T15:43:20;23.20;99.90
19164;DHT22;9714;51.208;4.242;2023-10-13T15:45:47;23.20;99.90
19164;DHT22;9714;51.208;4.242;2023-10-13T15:48:15;23.20;99.90
19164;DHT22;9714;51.208;4.242;2023-10-13T15:50:42;23.10;99.90
19164;DHT22;9714;51.208;4.242;2023-10-13T15:53:11;23.00;99.90
19164;DHT22;9714;51.208;4.242;2023-10-13T15:55:39;23.00;99.90
19164;DHT22;9714;51.208;4.242;2023-10-13T15:58:07;22.90;99.90
19164;DHT22;9714;51.208;4.242;2023-10-13T16:00:34;23.00;99.90
19164;DHT22;9714;51.208;4.242;2023-10-13T16:03:02;22.90;99.90
19164;DHT22;9714;51.208;4.242;2023-10-13T16:05:38;23.00;99.90
19164;DHT22;9714;51.208;4.242;2023-10-13T16:08:07;22.90;99.90
19164;DHT22;9714;51.208;4.242;2023-10-13T16:10:39;22.90;99.90
19164;DHT22;9714;51.208;4.242;2023-10-13T16:13:07;22.90;99.90
19164;DHT22;9714;51.208;4.242;2023-10-13T16:15:40;22.80;99.90
19164;DHT22;9714;51.208;4.242;2023-10-13T16:18:12;22.70;99.90
19164;DHT22;9714;51.208;4.242;2023-10-13T16:20:39;22.60;99.90
19164;DHT22;9714;51.208;4.242;2023-10-13T16:23:06;22.30;99.90
19164;DHT22;9714;51.208;4.242;2023-10-13T16:25:36;22.10;99.90
19164;DHT22;9714;51.208;4.242;2023-10-13T16:28:05;21.90;99.90
19164;DHT22;9714;51.208;4.242;2023-10-13T16:30:33;21.80;99.90
19164;DHT22;9714;51.208;4.242;2023-10-13T16:33:03;21.60;99.90
19164;DHT22;9714;51.208;4.242;2023-10-13T16:35:32;21.60;99.90
19164;DHT22;9714;51.208;4.242;2023-10-13T16:38:01;21.40;99.90